createdAt,value
2023-08-07T00:02:13.067Z,89.52
2023-08-07T00:04:40.315Z,89.45
2023-08-07T00:07:07.443Z,89.19
2023-08-07T00:09:34.558Z,89.73
2023-08-07T00:12:01.633Z,90.76
2023-08-07T00:14:28.988Z,90.14
2023-08-07T00:16:56.112Z,90.01
2023-08-07T00:19:23.276Z,90.57
2023-08-07T00:21:50.390Z,90.34
2023-08-07T00:24:19.732Z,90.46
2023-08-07T00:26:47.213Z,90.39
2023-08-07T00:29:14.364Z,90.57
2023-08-07T00:31:41.542Z,90.48
2023-08-07T00:34:08.647Z,91.00
2023-08-07T00:36:36.277Z,90.67
2023-08-07T00:39:07.280Z,90.24
2023-08-07T00:41:34.382Z,90.58
2023-08-07T00:44:01.730Z,90.68
2023-08-07T00:46:32.764Z,90.50
2023-08-07T00:49:00.108Z,90.79
2023-08-07T00:51:27.272Z,91.16
2023-08-07T00:53:54.416Z,90.57
2023-08-07T00:56:21.662Z,90.92
2023-08-07T00:58:48.854Z,90.95
2023-08-07T01:01:16.109Z,90.93
2023-08-07T01:03:43.397Z,91.27
2023-08-07T01:06:10.523Z,90.92
2023-08-07T01:08:37.694Z,90.89
2023-08-07T01:11:09.834Z,91.15
2023-08-07T01:13:58.957Z,90.81
2023-08-07T01:17:09.490Z,90.90
2023-08-07T01:19:37.508Z,90.78
2023-08-07T01:22:18.452Z,90.97
2023-08-07T01:24:47.045Z,90.48
2023-08-07T01:27:20.145Z,90.61
2023-08-07T01:29:50.698Z,90.61
2023-08-07T01:32:20.988Z,90.69
2023-08-07T01:34:48.324Z,90.62
2023-08-07T01:37:15.400Z,90.57
2023-08-07T01:39:42.610Z,90.41
2023-08-07T01:42:09.909Z,90.39
2023-08-07T01:44:38.118Z,90.39
2023-08-07T01:47:05.501Z,90.79
2023-08-07T01:49:32.643Z,90.08
2023-08-07T01:52:00.126Z,90.77
2023-08-07T01:54:27.192Z,90.71
2023-08-07T01:56:54.496Z,90.58
2023-08-07T01:59:22.453Z,90.30
2023-08-07T02:01:49.653Z,90.43
2023-08-07T02:04:18.721Z,91.00
2023-08-07T02:06:45.824Z,90.77
2023-08-07T02:09:12.883Z,90.93
2023-08-07T02:11:40.051Z,91.11
2023-08-07T02:14:07.142Z,90.84
2023-08-07T02:16:34.335Z,90.87
2023-08-07T02:19:01.550Z,90.97
2023-08-07T02:21:28.820Z,90.85
2023-08-07T02:23:55.921Z,90.96
2023-08-07T02:26:23.137Z,90.92
2023-08-07T02:28:50.420Z,91.04
2023-08-07T02:31:18.036Z,91.55
2023-08-07T02:33:45.303Z,91.33
2023-08-07T02:36:12.751Z,91.23
2023-08-07T02:38:40.004Z,91.18
2023-08-07T02:41:07.217Z,91.05
2023-08-07T02:43:35.735Z,91.32
2023-08-07T02:46:03.058Z,91.73
2023-08-07T02:48:30.231Z,92.47
2023-08-07T02:50:57.395Z,91.92
2023-08-07T02:53:24.548Z,91.82
2023-08-07T02:55:51.696Z,91.72
2023-08-07T02:58:21.066Z,92.19
2023-08-07T03:00:48.680Z,91.92
2023-08-07T03:03:15.950Z,92.10
2023-08-07T03:05:52.492Z,92.25
2023-08-07T03:08:19.641Z,92.25
2023-08-07T03:10:58.763Z,92.18
2023-08-07T03:13:28.965Z,92.47
2023-08-07T03:16:05.994Z,92.71
2023-08-07T03:18:33.545Z,92.59
2023-08-07T03:21:00.719Z,93.00
2023-08-07T03:23:30.720Z,92.91
2023-08-07T03:28:44.078Z,92.91
2023-08-07T03:31:11.234Z,93.30
2023-08-07T03:33:38.351Z,93.30
2023-08-07T03:36:05.546Z,92.99
2023-08-07T03:38:32.689Z,93.41
2023-08-07T03:41:00.501Z,93.58
2023-08-07T03:43:28.277Z,93.52
2023-08-07T03:46:00.315Z,92.91
2023-08-07T03:48:28.854Z,93.60
2023-08-07T03:51:03.923Z,93.26
2023-08-07T03:53:31.014Z,93.88
2023-08-07T03:56:01.503Z,93.70
2023-08-07T03:58:28.837Z,93.50
2023-08-07T04:00:55.996Z,93.41
2023-08-07T04:03:23.135Z,93.10
2023-08-07T04:05:53.328Z,92.42
2023-08-07T04:08:21.346Z,92.49
2023-08-07T04:11:08.655Z,93.29
2023-08-07T04:13:35.762Z,93.29
2023-08-07T04:16:05.670Z,93.15
2023-08-07T04:18:34.761Z,92.96
2023-08-07T04:21:01.998Z,93.24
2023-08-07T04:23:29.135Z,93.45
2023-08-07T04:25:56.713Z,93.55
2023-08-07T04:28:24.913Z,93.47
2023-08-07T04:30:53.262Z,93.31
2023-08-07T04:33:21.691Z,93.37
2023-08-07T04:35:49.070Z,93.34
2023-08-07T04:38:19.580Z,93.26
2023-08-07T04:40:49.996Z,93.50
2023-08-07T04:43:18.101Z,93.44
2023-08-07T04:48:30.784Z,93.13
2023-08-07T04:50:59.216Z,93.52
2023-08-07T04:53:26.877Z,93.65
2023-08-07T04:55:54.085Z,93.62
2023-08-07T04:58:21.154Z,93.13
2023-08-07T05:00:48.483Z,93.50
2023-08-07T05:03:16.996Z,93.35
2023-08-07T05:05:44.167Z,93.23
2023-08-07T05:08:11.259Z,92.67
2023-08-07T05:10:38.368Z,92.90
2023-08-07T05:13:05.414Z,92.17
2023-08-07T05:15:32.603Z,92.62
2023-08-07T05:17:59.784Z,91.73
2023-08-07T05:20:27.748Z,91.82
2023-08-07T05:22:57.795Z,91.88
2023-08-07T05:25:27.010Z,91.92
2023-08-07T05:27:54.105Z,91.73
2023-08-07T05:30:21.261Z,91.40
2023-08-07T05:32:48.439Z,91.55
2023-08-07T05:35:15.617Z,91.17
2023-08-07T05:37:42.732Z,91.51
2023-08-07T05:40:10.797Z,91.05
2023-08-07T05:42:37.922Z,90.95
2023-08-07T05:45:05.502Z,90.58
2023-08-07T05:47:33.666Z,90.83
2023-08-07T05:50:00.801Z,90.58
2023-08-07T05:52:28.452Z,90.37
2023-08-07T05:54:56.065Z,90.04
2023-08-07T05:57:23.264Z,89.46
2023-08-07T05:59:50.523Z,89.40
2023-08-07T06:02:17.627Z,88.77
2023-08-07T06:04:45.054Z,88.80
2023-08-07T06:07:12.472Z,88.51
2023-08-07T06:09:39.599Z,88.82
2023-08-07T06:12:07.015Z,88.21
2023-08-07T06:14:34.829Z,88.63
2023-08-07T06:17:03.157Z,88.30
2023-08-07T06:19:32.590Z,87.82
2023-08-07T06:22:00.930Z,87.95
2023-08-07T06:24:28.551Z,87.22
2023-08-07T06:26:56.001Z,86.89
2023-08-07T06:29:24.430Z,87.29
2023-08-07T06:31:51.739Z,86.72
2023-08-07T06:34:20.896Z,86.09
2023-08-07T06:36:48.006Z,86.76
2023-08-07T06:39:15.127Z,86.34
2023-08-07T06:41:42.188Z,86.19
2023-08-07T06:44:09.244Z,85.56
2023-08-07T06:46:36.387Z,85.91
2023-08-07T06:49:03.517Z,85.41
2023-08-07T06:51:30.699Z,85.21
2023-08-07T06:53:58.146Z,85.37
2023-08-07T06:56:26.018Z,85.09
2023-08-07T06:58:54.718Z,84.99
2023-08-07T07:01:22.111Z,85.03
2023-08-07T07:03:54.178Z,84.79
2023-08-07T07:06:22.399Z,84.96
2023-08-07T07:08:49.516Z,84.88
2023-08-07T07:11:16.636Z,85.02
2023-08-07T07:13:43.813Z,84.76
2023-08-07T07:16:13.121Z,84.01
2023-08-07T07:18:40.886Z,83.94
2023-08-07T07:21:08.001Z,82.76
2023-08-07T07:23:38.298Z,82.38
2023-08-07T07:26:05.381Z,82.23
2023-08-07T07:28:33.023Z,81.46
2023-08-07T07:31:00.160Z,80.87
2023-08-07T07:33:27.890Z,79.45
2023-08-07T07:35:56.057Z,79.54
2023-08-07T07:38:26.063Z,79.10
2023-08-07T07:40:59.139Z,78.14
2023-08-07T07:43:26.755Z,77.29
2023-08-07T07:45:54.108Z,77.25
2023-08-07T07:48:21.263Z,77.13
2023-08-07T07:50:48.408Z,76.51
2023-08-07T07:53:15.521Z,75.92
2023-08-07T07:55:42.649Z,75.84
2023-08-07T07:58:09.699Z,75.48
2023-08-07T08:00:38.715Z,75.20
2023-08-07T08:03:05.876Z,75.16
2023-08-07T08:05:33.490Z,74.27
2023-08-07T08:08:00.613Z,74.11
2023-08-07T08:10:28.129Z,74.51
2023-08-07T08:12:58.467Z,74.78
2023-08-07T08:15:26.283Z,74.37
2023-08-07T08:17:53.814Z,74.39
2023-08-07T08:20:20.969Z,74.01
2023-08-07T08:22:48.506Z,73.91
2023-08-07T08:25:15.650Z,73.66
2023-08-07T08:27:42.754Z,73.95
2023-08-07T08:30:10.429Z,73.80
2023-08-07T08:32:37.544Z,73.85
2023-08-07T08:35:04.686Z,74.12
2023-08-07T08:37:33.239Z,73.84
2023-08-07T08:40:00.554Z,72.78
2023-08-07T08:42:28.795Z,73.25
2023-08-07T08:44:57.635Z,73.48
2023-08-07T08:47:28.235Z,72.80
2023-08-07T08:50:03.606Z,73.55
2023-08-07T08:52:30.779Z,73.44
2023-08-07T08:54:58.377Z,72.44
2023-08-07T08:57:28.611Z,71.47
2023-08-07T08:59:56.511Z,71.67
2023-08-07T09:02:24.032Z,70.22
2023-08-07T09:04:52.154Z,69.98
2023-08-07T09:07:19.343Z,70.20
2023-08-07T09:09:46.427Z,69.79
2023-08-07T09:12:17.858Z,69.59
2023-08-07T09:14:45.004Z,69.39
2023-08-07T09:17:12.110Z,68.61
2023-08-07T09:19:39.226Z,68.76
2023-08-07T09:22:06.701Z,67.94
2023-08-07T09:24:33.773Z,66.85
2023-08-07T09:27:00.943Z,67.13
2023-08-07T09:29:27.999Z,67.24
2023-08-07T09:31:58.173Z,67.34
2023-08-07T09:34:25.814Z,67.41
2023-08-07T09:36:53.751Z,67.95
2023-08-07T09:39:21.244Z,67.46
2023-08-07T09:41:52.573Z,66.92
2023-08-07T09:44:19.686Z,67.05
2023-08-07T09:46:46.941Z,66.89
2023-08-07T09:49:14.815Z,66.42
2023-08-07T09:51:44.552Z,65.93
2023-08-07T09:54:11.801Z,66.21
2023-08-07T09:56:40.275Z,65.65
2023-08-07T09:59:07.614Z,66.28
2023-08-07T10:01:34.911Z,65.90
2023-08-07T10:04:02.091Z,66.41
2023-08-07T10:06:29.213Z,66.20
2023-08-07T10:08:57.377Z,66.80
2023-08-07T10:11:27.667Z,66.57
2023-08-07T10:13:56.817Z,67.06
2023-08-07T10:16:23.948Z,67.00
2023-08-07T10:18:51.077Z,67.04
2023-08-07T10:21:18.202Z,67.67
2023-08-07T10:23:45.350Z,67.73
2023-08-07T10:26:12.477Z,67.35
2023-08-07T10:28:40.707Z,67.08
2023-08-07T10:31:08.364Z,66.90
2023-08-07T10:33:35.458Z,66.53
2023-08-07T10:36:05.012Z,65.83
2023-08-07T10:38:32.115Z,65.91
2023-08-07T10:41:04.129Z,65.97
2023-08-07T10:43:31.714Z,66.62
2023-08-07T10:46:22.912Z,67.12
2023-08-07T10:48:58.946Z,66.96
2023-08-07T10:51:32.678Z,66.85
2023-08-07T10:54:02.171Z,66.58
2023-08-07T10:56:34.615Z,66.67
2023-08-07T10:59:12.390Z,66.84
2023-08-07T11:01:39.637Z,66.94
2023-08-07T11:04:08.449Z,66.08
2023-08-07T11:06:37.506Z,65.88
2023-08-07T11:09:06.429Z,64.65
2023-08-07T11:11:51.796Z,63.72
2023-08-07T11:14:20.242Z,64.68
2023-08-07T11:16:49.012Z,64.21
2023-08-07T11:19:17.679Z,63.73
2023-08-07T11:21:45.259Z,64.05
2023-08-07T11:24:16.960Z,63.65
2023-08-07T11:26:45.282Z,63.40
2023-08-07T11:29:12.414Z,63.64
2023-08-07T11:31:39.520Z,63.66
2023-08-07T11:34:06.612Z,63.12
2023-08-07T11:36:35.003Z,61.57
2023-08-07T11:39:02.287Z,61.92
2023-08-07T11:41:33.315Z,61.91
2023-08-07T11:44:01.213Z,61.93
2023-08-07T11:46:28.324Z,62.17
2023-08-07T11:48:56.431Z,62.02
2023-08-07T11:51:23.964Z,62.20
2023-08-07T11:53:51.729Z,62.03
2023-08-07T11:56:19.466Z,62.50
2023-08-07T11:58:48.489Z,62.00
2023-08-07T12:01:22.875Z,62.07
2023-08-07T12:03:56.513Z,61.65
2023-08-07T12:06:27.481Z,61.93
2023-08-07T12:08:58.635Z,61.52
2023-08-07T12:11:26.546Z,61.74
2023-08-07T12:13:53.797Z,61.15
2023-08-07T12:16:21.089Z,61.05
2023-08-07T12:18:49.890Z,61.69
2023-08-07T12:21:18.508Z,61.92
2023-08-07T12:23:45.703Z,62.42
2023-08-07T12:26:12.974Z,62.42
2023-08-07T12:28:40.131Z,62.61
2023-08-07T12:31:08.276Z,62.97
2023-08-07T12:33:35.404Z,62.93
2023-08-07T12:36:03.228Z,62.80
2023-08-07T12:38:30.306Z,62.67
2023-08-07T12:40:57.749Z,63.28
2023-08-07T12:43:25.725Z,63.30
2023-08-07T12:46:31.789Z,63.47
2023-08-07T12:48:44.205Z,63.77
2023-08-07T12:51:11.259Z,63.34
2023-08-07T12:53:38.334Z,63.50
2023-08-07T12:56:06.873Z,63.43
2023-08-07T12:58:33.925Z,63.37
2023-08-07T13:01:01.043Z,63.30
2023-08-07T13:03:28.178Z,63.10
2023-08-07T13:05:55.845Z,63.11
2023-08-07T13:08:22.951Z,62.44
2023-08-07T13:10:50.575Z,62.39
2023-08-07T13:13:17.753Z,61.71
2023-08-07T13:15:44.883Z,61.44
2023-08-07T13:18:12.150Z,60.97
2023-08-07T13:20:39.322Z,61.50
2023-08-07T13:23:07.967Z,61.36
2023-08-07T13:25:35.307Z,61.00
2023-08-07T13:28:05.808Z,60.57
2023-08-07T13:30:36.040Z,60.84
2023-08-07T13:33:04.420Z,59.96
2023-08-07T13:35:32.164Z,60.27
2023-08-07T13:37:59.308Z,61.00
2023-08-07T13:40:27.019Z,60.59
2023-08-07T13:42:54.804Z,60.85
2023-08-07T13:45:21.921Z,60.10
2023-08-07T13:47:49.066Z,60.13
2023-08-07T13:50:16.729Z,59.90
2023-08-07T13:52:43.829Z,59.84
2023-08-07T13:55:11.022Z,60.14
2023-08-07T13:57:38.216Z,59.85
2023-08-07T14:00:06.229Z,60.32
2023-08-07T14:02:36.062Z,60.08
2023-08-07T14:05:03.486Z,59.85
2023-08-07T14:07:30.751Z,59.49
2023-08-07T14:09:59.160Z,58.99
2023-08-07T14:12:26.806Z,58.75
2023-08-07T14:14:55.866Z,58.67
2023-08-07T14:17:25.778Z,58.22
2023-08-07T14:19:53.632Z,57.71
2023-08-07T14:22:20.910Z,57.64
2023-08-07T14:24:49.133Z,57.84
2023-08-07T14:27:21.172Z,57.82
2023-08-07T14:29:48.258Z,57.55
2023-08-07T14:32:16.678Z,57.95
2023-08-07T14:34:43.859Z,57.42
2023-08-07T14:37:10.969Z,57.47
2023-08-07T14:39:38.030Z,58.14
2023-08-07T14:42:05.137Z,57.46
2023-08-07T14:44:32.409Z,57.46
2023-08-07T14:46:59.526Z,57.68
2023-08-07T14:49:27.548Z,57.71
2023-08-07T14:51:58.372Z,57.63
2023-08-07T14:54:25.729Z,57.93
2023-08-07T14:56:52.922Z,58.30
2023-08-07T14:59:20.067Z,58.60
2023-08-07T15:01:47.237Z,58.38
2023-08-07T15:04:15.523Z,58.36
2023-08-07T15:06:43.552Z,57.91
2023-08-07T15:09:10.783Z,58.38
2023-08-07T15:11:39.669Z,58.02
2023-08-07T15:14:08.883Z,57.81
2023-08-07T15:16:38.734Z,57.53
2023-08-07T15:19:06.207Z,57.62
2023-08-07T15:21:33.425Z,57.28
2023-08-07T15:24:00.529Z,57.46
2023-08-07T15:26:27.668Z,57.46
2023-08-07T15:28:54.879Z,57.38
2023-08-07T15:31:21.963Z,57.91
2023-08-07T15:33:50.637Z,57.89
2023-08-07T15:36:17.778Z,58.13
2023-08-07T15:38:44.899Z,58.02
2023-08-07T15:41:12.532Z,57.95
2023-08-07T15:43:39.991Z,57.49
2023-08-07T15:46:07.173Z,57.39
2023-08-07T15:48:34.314Z,57.58
2023-08-07T15:51:01.449Z,57.82
2023-08-07T15:53:28.883Z,58.16
2023-08-07T15:55:56.097Z,57.81
2023-08-07T15:58:24.019Z,57.96
2023-08-07T16:00:51.350Z,57.76
2023-08-07T16:03:18.839Z,57.94
2023-08-07T16:05:46.554Z,57.61
2023-08-07T16:08:13.659Z,58.28
2023-08-07T16:10:40.884Z,57.69
2023-08-07T16:13:08.446Z,57.35
2023-08-07T16:15:36.121Z,57.32
2023-08-07T16:18:03.415Z,57.16
2023-08-07T16:20:30.578Z,57.22
2023-08-07T16:22:57.857Z,57.42
2023-08-07T16:25:25.518Z,56.93
2023-08-07T16:27:52.680Z,56.98
2023-08-07T16:30:20.248Z,56.98
2023-08-07T16:32:47.395Z,57.50
2023-08-07T16:35:15.335Z,57.10
2023-08-07T16:37:43.266Z,56.95
2023-08-07T16:40:10.827Z,57.30
2023-08-07T16:42:37.945Z,57.59
2023-08-07T16:45:05.800Z,57.26
2023-08-07T16:47:32.931Z,56.83
2023-08-07T16:50:00.047Z,57.28
2023-08-07T16:52:27.664Z,57.54
2023-08-07T16:54:56.031Z,57.25
2023-08-07T16:57:23.112Z,57.61
2023-08-07T16:59:50.245Z,57.50
2023-08-07T17:02:17.405Z,57.57
2023-08-07T17:04:44.627Z,57.33
2023-08-07T17:07:12.407Z,57.67
2023-08-07T17:09:39.818Z,57.97
2023-08-07T17:12:07.773Z,57.95
2023-08-07T17:14:34.917Z,58.18
2023-08-07T17:17:02.118Z,58.07
2023-08-07T17:19:29.203Z,58.36
2023-08-07T17:21:56.900Z,58.26
2023-08-07T17:24:24.030Z,59.08
2023-08-07T17:26:51.229Z,58.96
2023-08-07T17:29:18.442Z,58.77
2023-08-07T17:31:45.591Z,58.44
2023-08-07T17:34:12.740Z,58.30
2023-08-07T17:36:39.866Z,58.80
2023-08-07T17:39:07.022Z,59.00
2023-08-07T17:41:34.138Z,59.00
2023-08-07T17:44:01.261Z,59.60
2023-08-07T17:46:28.426Z,59.77
2023-08-07T17:48:55.842Z,60.10
2023-08-07T17:51:22.929Z,60.27
2023-08-07T17:53:50.035Z,60.00
2023-08-07T17:56:17.079Z,60.19
2023-08-07T17:58:44.117Z,60.74
2023-08-07T18:01:11.216Z,60.59
2023-08-07T18:03:38.301Z,60.49
2023-08-07T18:06:05.356Z,60.72
2023-08-07T18:08:32.604Z,61.26
2023-08-07T18:10:59.657Z,61.71
2023-08-07T18:13:28.073Z,61.79
2023-08-07T18:15:56.032Z,62.05
2023-08-07T18:18:23.243Z,62.25
2023-08-07T18:20:50.437Z,62.25
2023-08-07T18:23:17.588Z,62.57
2023-08-07T18:25:44.661Z,62.47
2023-08-07T18:28:11.762Z,62.35
2023-08-07T18:30:39.070Z,62.51
2023-08-07T18:33:06.281Z,62.82
2023-08-07T18:35:33.533Z,63.27
2023-08-07T18:41:29.382Z,63.63
2023-08-07T18:43:57.240Z,63.90
2023-08-07T18:46:24.338Z,63.85
2023-08-07T18:48:52.278Z,64.28
2023-08-07T18:51:19.674Z,64.06
2023-08-07T18:53:46.764Z,64.04
2023-08-07T18:56:13.861Z,65.10
2023-08-07T18:58:40.910Z,64.79
2023-08-07T19:01:08.114Z,65.32
2023-08-07T19:03:35.821Z,65.14
2023-08-07T19:06:06.570Z,65.44
2023-08-07T19:08:34.825Z,65.56
2023-08-07T19:11:02.229Z,65.50
2023-08-07T19:13:29.345Z,65.75
2023-08-07T19:15:58.018Z,66.18
2023-08-07T19:18:26.118Z,66.38
2023-08-07T19:20:53.788Z,66.65
2023-08-07T19:23:21.271Z,67.29
2023-08-07T19:25:48.438Z,66.91
2023-08-07T19:28:15.689Z,67.24
2023-08-07T19:30:49.217Z,67.59
2023-08-07T19:33:19.771Z,67.74
2023-08-07T19:35:46.896Z,68.20
2023-08-07T19:38:14.169Z,68.23
2023-08-07T19:40:41.399Z,68.68
2023-08-07T19:43:08.451Z,68.70
2023-08-07T19:45:36.680Z,69.01
2023-08-07T19:48:04.150Z,68.95
2023-08-07T19:50:31.255Z,69.15
2023-08-07T19:52:58.420Z,69.23
2023-08-07T19:55:28.441Z,69.16
2023-08-07T19:57:58.072Z,69.15
2023-08-07T20:00:25.778Z,69.46
2023-08-07T20:02:52.996Z,70.06
2023-08-07T20:05:20.167Z,70.07
2023-08-07T20:07:47.482Z,70.09
2023-08-07T20:10:21.014Z,69.97
2023-08-07T20:12:49.075Z,70.17
2023-08-07T20:15:17.238Z,70.63
2023-08-07T20:17:49.866Z,70.38
2023-08-07T20:20:21.378Z,70.38
2023-08-07T20:22:48.764Z,70.69
2023-08-07T20:25:16.393Z,70.32
2023-08-07T20:27:43.597Z,70.88
2023-08-07T20:30:11.250Z,70.44
2023-08-07T20:32:39.055Z,70.51
2023-08-07T20:35:07.124Z,70.96
2023-08-07T20:37:34.669Z,71.07
2023-08-07T20:40:01.898Z,70.93
2023-08-07T20:42:29.674Z,71.15
2023-08-07T20:44:58.201Z,71.13
2023-08-07T20:47:26.235Z,71.60
2023-08-07T20:49:53.410Z,71.15
2023-08-07T20:52:20.557Z,71.33
2023-08-07T20:54:47.651Z,71.40
2023-08-07T20:57:14.760Z,71.57
2023-08-07T20:59:41.913Z,71.72
2023-08-07T21:02:09.097Z,71.93
2023-08-07T21:04:36.580Z,71.84
2023-08-07T21:07:03.880Z,72.34
2023-08-07T21:09:31.021Z,72.41
2023-08-07T21:11:58.496Z,72.31
2023-08-07T21:14:25.954Z,72.34
2023-08-07T21:16:53.164Z,72.79
2023-08-07T21:19:20.471Z,72.82
2023-08-07T21:21:47.643Z,72.73
2023-08-07T21:24:14.814Z,72.49
2023-08-07T21:26:42.263Z,73.19
2023-08-07T21:29:09.692Z,73.03
2023-08-07T21:31:37.069Z,72.97
2023-08-07T21:34:04.562Z,73.12
2023-08-07T21:36:31.775Z,73.32
2023-08-07T21:38:59.124Z,73.29
2023-08-07T21:41:27.589Z,73.29
2023-08-07T21:43:54.860Z,73.48
2023-08-07T21:46:24.607Z,73.40
2023-08-07T21:48:52.501Z,73.77
2023-08-07T21:51:19.671Z,73.38
2023-08-07T21:53:46.784Z,73.86
2023-08-07T21:56:14.013Z,73.74
2023-08-07T21:58:41.160Z,73.96
2023-08-07T22:01:08.434Z,73.69
2023-08-07T22:03:36.072Z,73.88
2023-08-07T22:06:03.935Z,74.42
2023-08-07T22:08:33.424Z,74.31
2023-08-07T22:11:01.158Z,74.48
2023-08-07T22:13:28.435Z,74.73
2023-08-07T22:15:55.956Z,74.78
2023-08-07T22:18:23.943Z,74.73
2023-08-07T22:20:51.069Z,74.76
2023-08-07T22:23:18.486Z,75.19
2023-08-07T22:25:45.657Z,74.83
2023-08-07T22:28:12.839Z,75.12
2023-08-07T22:30:40.035Z,75.19
2023-08-07T22:33:07.318Z,75.28
2023-08-07T22:35:34.690Z,75.35
2023-08-07T22:38:01.795Z,75.68
2023-08-07T22:40:28.945Z,75.63
2023-08-07T22:42:56.305Z,76.06
2023-08-07T22:45:23.620Z,75.63
2023-08-07T22:47:50.963Z,75.63
2023-08-07T22:50:19.771Z,75.81
2023-08-07T22:52:46.956Z,76.39
2023-08-07T22:55:14.074Z,76.44
2023-08-07T22:57:41.209Z,76.31
2023-08-07T23:00:11.670Z,76.80
2023-08-07T23:02:39.517Z,76.40
2023-08-07T23:05:09.223Z,76.76
2023-08-07T23:07:36.570Z,76.67
2023-08-07T23:10:04.011Z,77.24
2023-08-07T23:12:31.142Z,77.15
2023-08-07T23:14:58.624Z,77.43
2023-08-07T23:17:25.990Z,77.18
2023-08-07T23:19:53.192Z,77.85
2023-08-07T23:22:20.287Z,77.52
2023-08-07T23:24:47.434Z,77.78
2023-08-07T23:27:14.930Z,78.14
2023-08-07T23:29:43.243Z,78.43
2023-08-07T23:32:11.422Z,78.01
2023-08-07T23:34:38.555Z,78.38
2023-08-07T23:37:06.145Z,78.45
2023-08-07T23:39:33.280Z,78.34
2023-08-07T23:42:01.607Z,78.94
2023-08-07T23:44:29.104Z,79.00
2023-08-07T23:46:56.482Z,78.86
2023-08-07T23:49:23.796Z,79.15
2023-08-07T23:51:50.964Z,79.15
2023-08-07T23:54:18.112Z,79.03
2023-08-07T23:56:45.309Z,79.42
2023-08-07T23:59:12.480Z,79.47
